sensor_id;sensor_type;location;lat;lon;timestamp;P1;durP1;ratioP1;P2;durP2;ratioP2
56541;SDS011;42438;53.174;6.730;2022-08-19T00:00:58;9.13;;;5.13;;
56541;SDS011;42438;53.174;6.730;2022-08-19T00:03:29;11.25;;;5.20;;
56541;SDS011;42438;53.174;6.730;2022-08-19T00:06:00;8.15;;;5.38;;
56541;SDS011;42438;53.174;6.730;2022-08-19T00:08:30;10.13;;;5.80;;
56541;SDS011;42438;53.174;6.730;2022-08-19T00:11:01;8.93;;;6.20;;
56541;SDS011;42438;53.174;6.730;2022-08-19T00:13:32;9.70;;;6.10;;
56541;SDS011;42438;53.174;6.730;2022-08-19T00:16:04;8.70;;;5.78;;
56541;SDS011;42438;53.174;6.730;2022-08-19T00:18:36;9.05;;;5.85;;
56541;SDS011;42438;53.174;6.730;2022-08-19T00:21:06;13.88;;;6.40;;
56541;SDS011;42438;53.174;6.730;2022-08-19T00:23:37;10.60;;;6.20;;
56541;SDS011;42438;53.174;6.730;2022-08-19T00:26:08;10.35;;;6.40;;
56541;SDS011;42438;53.174;6.730;2022-08-19T00:28:40;10.20;;;6.43;;
56541;SDS011;42438;53.174;6.730;2022-08-19T00:31:11;6.68;;;3.55;;
56541;SDS011;42438;53.174;6.730;2022-08-19T00:33:42;5.68;;;3.60;;
56541;SDS011;42438;53.174;6.730;2022-08-19T00:36:13;6.85;;;4.13;;
56541;SDS011;42438;53.174;6.730;2022-08-19T00:38:43;7.70;;;4.38;;
56541;SDS011;42438;53.174;6.730;2022-08-19T00:41:14;8.23;;;5.13;;
56541;SDS011;42438;53.174;6.730;2022-08-19T00:46:51;11.70;;;6.10;;
56541;SDS011;42438;53.174;6.730;2022-08-19T00:52:04;12.38;;;6.75;;
56541;SDS011;42438;53.174;6.730;2022-08-19T00:54:42;4.82;;;2.30;;
56541;SDS011;42438;53.174;6.730;2022-08-19T00:57:15;6.30;;;2.08;;
56541;SDS011;42438;53.174;6.730;2022-08-19T00:59:48;8.68;;;2.10;;
56541;SDS011;42438;53.174;6.730;2022-08-19T01:02:23;8.68;;;1.60;;
56541;SDS011;42438;53.174;6.730;2022-08-19T01:04:54;5.65;;;1.60;;
56541;SDS011;42438;53.174;6.730;2022-08-19T01:07:26;4.00;;;2.30;;
56541;SDS011;42438;53.174;6.730;2022-08-19T01:09:57;4.78;;;2.85;;
56541;SDS011;42438;53.174;6.730;2022-08-19T01:12:27;5.03;;;3.00;;
56541;SDS011;42438;53.174;6.730;2022-08-19T01:14:58;6.55;;;2.55;;
56541;SDS011;42438;53.174;6.730;2022-08-19T01:17:29;5.00;;;2.35;;
56541;SDS011;42438;53.174;6.730;2022-08-19T01:20:00;3.80;;;2.00;;
56541;SDS011;42438;53.174;6.730;2022-08-19T01:22:31;2.42;;;1.30;;
56541;SDS011;42438;53.174;6.730;2022-08-19T01:25:10;5.70;;;2.03;;
56541;SDS011;42438;53.174;6.730;2022-08-19T01:27:45;6.13;;;3.20;;
56541;SDS011;42438;53.174;6.730;2022-08-19T01:30:22;6.07;;;2.83;;
56541;SDS011;42438;53.174;6.730;2022-08-19T01:32:55;6.03;;;3.42;;
56541;SDS011;42438;53.174;6.730;2022-08-19T01:35:28;7.20;;;4.65;;
56541;SDS011;42438;53.174;6.730;2022-08-19T01:38:01;10.85;;;6.35;;
56541;SDS011;42438;53.174;6.730;2022-08-19T01:40:38;9.73;;;6.18;;
56541;SDS011;42438;53.174;6.730;2022-08-19T01:43:09;10.02;;;6.13;;
56541;SDS011;42438;53.174;6.730;2022-08-19T01:45:40;13.80;;;6.90;;
56541;SDS011;42438;53.174;6.730;2022-08-19T01:48:12;11.07;;;7.22;;
56541;SDS011;42438;53.174;6.730;2022-08-19T01:50:43;14.23;;;7.38;;
56541;SDS011;42438;53.174;6.730;2022-08-19T01:53:14;14.35;;;7.00;;
56541;SDS011;42438;53.174;6.730;2022-08-19T01:55:45;15.13;;;7.90;;
56541;SDS011;42438;53.174;6.730;2022-08-19T01:58:17;13.38;;;6.55;;
56541;SDS011;42438;53.174;6.730;2022-08-19T02:00:50;11.05;;;6.10;;
56541;SDS011;42438;53.174;6.730;2022-08-19T02:03:21;10.18;;;6.30;;
56541;SDS011;42438;53.174;6.730;2022-08-19T02:05:54;15.07;;;7.15;;
56541;SDS011;42438;53.174;6.730;2022-08-19T02:08:29;11.88;;;6.75;;
56541;SDS011;42438;53.174;6.730;2022-08-19T02:11:02;13.85;;;6.85;;
56541;SDS011;42438;53.174;6.730;2022-08-19T02:13:33;13.73;;;7.15;;
56541;SDS011;42438;53.174;6.730;2022-08-19T02:16:04;12.73;;;7.60;;
56541;SDS011;42438;53.174;6.730;2022-08-19T02:18:35;15.32;;;7.70;;
56541;SDS011;42438;53.174;6.730;2022-08-19T02:21:06;15.30;;;7.63;;
56541;SDS011;42438;53.174;6.730;2022-08-19T02:23:37;13.23;;;7.68;;
56541;SDS011;42438;53.174;6.730;2022-08-19T02:26:07;13.13;;;7.30;;
56541;SDS011;42438;53.174;6.730;2022-08-19T02:28:39;13.55;;;7.95;;
56541;SDS011;42438;53.174;6.730;2022-08-19T02:31:11;13.55;;;7.55;;
56541;SDS011;42438;53.174;6.730;2022-08-19T02:33:45;15.82;;;9.10;;
56541;SDS011;42438;53.174;6.730;2022-08-19T02:36:16;13.13;;;7.95;;
56541;SDS011;42438;53.174;6.730;2022-08-19T02:38:48;16.17;;;9.23;;
56541;SDS011;42438;53.174;6.730;2022-08-19T02:41:19;14.30;;;8.45;;
56541;SDS011;42438;53.174;6.730;2022-08-19T02:43:52;16.42;;;8.93;;
56541;SDS011;42438;53.174;6.730;2022-08-19T02:46:25;16.60;;;9.02;;
56541;SDS011;42438;53.174;6.730;2022-08-19T02:49:05;15.68;;;8.63;;
56541;SDS011;42438;53.174;6.730;2022-08-19T02:51:38;15.95;;;8.43;;
56541;SDS011;42438;53.174;6.730;2022-08-19T02:54:11;14.50;;;7.68;;
56541;SDS011;42438;53.174;6.730;2022-08-19T02:56:43;15.77;;;8.18;;
56541;SDS011;42438;53.174;6.730;2022-08-19T02:59:15;15.13;;;8.38;;
56541;SDS011;42438;53.174;6.730;2022-08-19T03:01:45;13.10;;;8.02;;
56541;SDS011;42438;53.174;6.730;2022-08-19T03:04:16;16.25;;;8.77;;
56541;SDS011;42438;53.174;6.730;2022-08-19T03:06:47;13.75;;;8.38;;
56541;SDS011;42438;53.174;6.730;2022-08-19T03:09:19;16.45;;;8.27;;
56541;SDS011;42438;53.174;6.730;2022-08-19T03:11:50;13.85;;;8.20;;
56541;SDS011;42438;53.174;6.730;2022-08-19T03:14:20;17.17;;;9.18;;
56541;SDS011;42438;53.174;6.730;2022-08-19T03:16:51;14.90;;;8.38;;
56541;SDS011;42438;53.174;6.730;2022-08-19T03:19:22;16.83;;;8.73;;
56541;SDS011;42438;53.174;6.730;2022-08-19T03:21:53;15.02;;;8.40;;
56541;SDS011;42438;53.174;6.730;2022-08-19T03:24:25;15.32;;;8.32;;
56541;SDS011;42438;53.174;6.730;2022-08-19T03:26:56;17.48;;;8.55;;
56541;SDS011;42438;53.174;6.730;2022-08-19T03:29:28;15.27;;;8.05;;
56541;SDS011;42438;53.174;6.730;2022-08-19T03:32:03;16.13;;;8.30;;
56541;SDS011;42438;53.174;6.730;2022-08-19T03:37:07;15.35;;;8.48;;
56541;SDS011;42438;53.174;6.730;2022-08-19T03:42:11;18.35;;;9.43;;
56541;SDS011;42438;53.174;6.730;2022-08-19T03:44:42;18.20;;;9.60;;
56541;SDS011;42438;53.174;6.730;2022-08-19T03:47:14;18.60;;;9.48;;
56541;SDS011;42438;53.174;6.730;2022-08-19T03:49:45;17.38;;;9.27;;
56541;SDS011;42438;53.174;6.730;2022-08-19T03:52:16;16.77;;;8.65;;
56541;SDS011;42438;53.174;6.730;2022-08-19T03:54:46;18.27;;;9.15;;
56541;SDS011;42438;53.174;6.730;2022-08-19T03:57:17;20.30;;;10.05;;
56541;SDS011;42438;53.174;6.730;2022-08-19T03:59:48;16.40;;;9.55;;
56541;SDS011;42438;53.174;6.730;2022-08-19T04:02:18;20.98;;;9.98;;
56541;SDS011;42438;53.174;6.730;2022-08-19T04:04:49;17.20;;;9.75;;
56541;SDS011;42438;53.174;6.730;2022-08-19T04:07:24;19.52;;;8.85;;
56541;SDS011;42438;53.174;6.730;2022-08-19T04:09:54;17.90;;;9.18;;
56541;SDS011;42438;53.174;6.730;2022-08-19T04:12:25;18.13;;;9.88;;
56541;SDS011;42438;53.174;6.730;2022-08-19T04:14:57;16.55;;;8.90;;
56541;SDS011;42438;53.174;6.730;2022-08-19T04:17:28;18.60;;;9.63;;
56541;SDS011;42438;53.174;6.730;2022-08-19T04:19:59;18.20;;;8.30;;
56541;SDS011;42438;53.174;6.730;2022-08-19T04:22:29;22.73;;;9.95;;
56541;SDS011;42438;53.174;6.730;2022-08-19T04:25:00;18.23;;;9.57;;
56541;SDS011;42438;53.174;6.730;2022-08-19T04:27:31;18.27;;;9.45;;
56541;SDS011;42438;53.174;6.730;2022-08-19T04:30:03;18.63;;;9.35;;
56541;SDS011;42438;53.174;6.730;2022-08-19T04:32:34;16.15;;;8.35;;
56541;SDS011;42438;53.174;6.730;2022-08-19T04:35:05;19.00;;;8.95;;
56541;SDS011;42438;53.174;6.730;2022-08-19T04:37:36;16.35;;;8.77;;
56541;SDS011;42438;53.174;6.730;2022-08-19T04:40:08;15.25;;;8.10;;
56541;SDS011;42438;53.174;6.730;2022-08-19T04:42:58;17.38;;;8.63;;
56541;SDS011;42438;53.174;6.730;2022-08-19T04:45:28;17.60;;;8.85;;
56541;SDS011;42438;53.174;6.730;2022-08-19T04:47:59;15.93;;;8.20;;
56541;SDS011;42438;53.174;6.730;2022-08-19T04:50:31;18.73;;;8.90;;
56541;SDS011;42438;53.174;6.730;2022-08-19T04:53:02;17.73;;;8.63;;
56541;SDS011;42438;53.174;6.730;2022-08-19T04:55:37;15.88;;;7.95;;
56541;SDS011;42438;53.174;6.730;2022-08-19T04:58:09;17.92;;;9.05;;
56541;SDS011;42438;53.174;6.730;2022-08-19T05:00:40;16.92;;;8.95;;
56541;SDS011;42438;53.174;6.730;2022-08-19T05:03:10;16.98;;;8.43;;
56541;SDS011;42438;53.174;6.730;2022-08-19T05:05:41;17.83;;;8.43;;
56541;SDS011;42438;53.174;6.730;2022-08-19T05:08:13;17.27;;;9.13;;
56541;SDS011;42438;53.174;6.730;2022-08-19T05:10:49;14.00;;;8.23;;
56541;SDS011;42438;53.174;6.730;2022-08-19T05:13:21;17.55;;;8.30;;
56541;SDS011;42438;53.174;6.730;2022-08-19T05:15:55;16.90;;;8.10;;
56541;SDS011;42438;53.174;6.730;2022-08-19T05:18:27;17.08;;;7.85;;
56541;SDS011;42438;53.174;6.730;2022-08-19T05:21:16;16.90;;;8.38;;
56541;SDS011;42438;53.174;6.730;2022-08-19T05:24:07;16.70;;;8.55;;
56541;SDS011;42438;53.174;6.730;2022-08-19T05:26:39;14.88;;;8.05;;
56541;SDS011;42438;53.174;6.730;2022-08-19T05:29:11;15.68;;;8.35;;
56541;SDS011;42438;53.174;6.730;2022-08-19T05:31:43;13.17;;;7.30;;
56541;SDS011;42438;53.174;6.730;2022-08-19T05:34:16;20.63;;;9.05;;
56541;SDS011;42438;53.174;6.730;2022-08-19T05:36:50;22.48;;;10.07;;
56541;SDS011;42438;53.174;6.730;2022-08-19T05:39:28;24.05;;;10.65;;
56541;SDS011;42438;53.174;6.730;2022-08-19T05:42:01;23.23;;;10.77;;
56541;SDS011;42438;53.174;6.730;2022-08-19T05:44:36;22.50;;;10.48;;
56541;SDS011;42438;53.174;6.730;2022-08-19T05:47:10;25.73;;;11.57;;
56541;SDS011;42438;53.174;6.730;2022-08-19T05:52:14;19.73;;;9.80;;
56541;SDS011;42438;53.174;6.730;2022-08-19T05:54:48;18.05;;;8.82;;
56541;SDS011;42438;53.174;6.730;2022-08-19T05:57:21;17.15;;;8.82;;
56541;SDS011;42438;53.174;6.730;2022-08-19T05:59:52;22.13;;;10.68;;
56541;SDS011;42438;53.174;6.730;2022-08-19T06:02:24;19.33;;;9.32;;
56541;SDS011;42438;53.174;6.730;2022-08-19T06:04:58;19.23;;;9.18;;
56541;SDS011;42438;53.174;6.730;2022-08-19T06:07:29;17.83;;;8.88;;
56541;SDS011;42438;53.174;6.730;2022-08-19T06:09:59;18.17;;;9.38;;
56541;SDS011;42438;53.174;6.730;2022-08-19T06:12:31;19.25;;;9.75;;
56541;SDS011;42438;53.174;6.730;2022-08-19T06:15:08;18.55;;;8.98;;
56541;SDS011;42438;53.174;6.730;2022-08-19T06:17:41;18.38;;;9.35;;
56541;SDS011;42438;53.174;6.730;2022-08-19T06:20:14;18.30;;;8.75;;
56541;SDS011;42438;53.174;6.730;2022-08-19T06:22:46;16.65;;;9.48;;
56541;SDS011;42438;53.174;6.730;2022-08-19T06:25:19;18.30;;;10.10;;
56541;SDS011;42438;53.174;6.730;2022-08-19T06:27:50;20.52;;;10.27;;
56541;SDS011;42438;53.174;6.730;2022-08-19T06:30:21;18.15;;;9.55;;
56541;SDS011;42438;53.174;6.730;2022-08-19T06:32:52;17.10;;;9.32;;
56541;SDS011;42438;53.174;6.730;2022-08-19T06:35:22;17.75;;;9.23;;
56541;SDS011;42438;53.174;6.730;2022-08-19T06:37:53;17.85;;;9.80;;
56541;SDS011;42438;53.174;6.730;2022-08-19T06:40:24;20.10;;;9.90;;
56541;SDS011;42438;53.174;6.730;2022-08-19T06:42:55;14.95;;;8.95;;
56541;SDS011;42438;53.174;6.730;2022-08-19T06:45:26;18.55;;;10.70;;
56541;SDS011;42438;53.174;6.730;2022-08-19T06:47:57;16.40;;;9.65;;
56541;SDS011;42438;53.174;6.730;2022-08-19T06:50:28;16.80;;;9.52;;
56541;SDS011;42438;53.174;6.730;2022-08-19T06:52:59;13.73;;;8.55;;
56541;SDS011;42438;53.174;6.730;2022-08-19T06:55:30;17.60;;;9.63;;
56541;SDS011;42438;53.174;6.730;2022-08-19T06:58:01;19.15;;;9.52;;
56541;SDS011;42438;53.174;6.730;2022-08-19T07:00:33;18.00;;;9.55;;
56541;SDS011;42438;53.174;6.730;2022-08-19T07:03:04;19.88;;;11.20;;
56541;SDS011;42438;53.174;6.730;2022-08-19T07:05:41;15.60;;;9.52;;
56541;SDS011;42438;53.174;6.730;2022-08-19T07:08:12;18.80;;;10.10;;
56541;SDS011;42438;53.174;6.730;2022-08-19T07:10:44;21.27;;;10.63;;
56541;SDS011;42438;53.174;6.730;2022-08-19T07:13:15;20.15;;;10.88;;
56541;SDS011;42438;53.174;6.730;2022-08-19T07:15:46;16.58;;;9.25;;
56541;SDS011;42438;53.174;6.730;2022-08-19T07:18:18;17.70;;;9.93;;
56541;SDS011;42438;53.174;6.730;2022-08-19T07:20:49;17.88;;;9.60;;
56541;SDS011;42438;53.174;6.730;2022-08-19T07:23:20;16.70;;;10.07;;
56541;SDS011;42438;53.174;6.730;2022-08-19T07:25:51;20.13;;;10.98;;
56541;SDS011;42438;53.174;6.730;2022-08-19T07:28:21;18.75;;;11.07;;
56541;SDS011;42438;53.174;6.730;2022-08-19T07:30:52;20.90;;;11.30;;
56541;SDS011;42438;53.174;6.730;2022-08-19T07:33:23;19.00;;;10.38;;
56541;SDS011;42438;53.174;6.730;2022-08-19T07:35:54;18.88;;;10.63;;
56541;SDS011;42438;53.174;6.730;2022-08-19T07:38:25;17.73;;;10.82;;
56541;SDS011;42438;53.174;6.730;2022-08-19T07:40:56;17.75;;;10.98;;
56541;SDS011;42438;53.174;6.730;2022-08-19T07:43:27;19.50;;;10.82;;
56541;SDS011;42438;53.174;6.730;2022-08-19T07:45:57;16.73;;;10.23;;
56541;SDS011;42438;53.174;6.730;2022-08-19T07:48:28;21.17;;;10.73;;
56541;SDS011;42438;53.174;6.730;2022-08-19T07:51:00;16.25;;;10.13;;
56541;SDS011;42438;53.174;6.730;2022-08-19T07:53:34;20.15;;;11.10;;
56541;SDS011;42438;53.174;6.730;2022-08-19T07:56:05;17.45;;;10.43;;
56541;SDS011;42438;53.174;6.730;2022-08-19T07:58:37;18.38;;;10.85;;
56541;SDS011;42438;53.174;6.730;2022-08-19T08:01:11;16.05;;;9.40;;
56541;SDS011;42438;53.174;6.730;2022-08-19T08:03:47;16.42;;;10.88;;
56541;SDS011;42438;53.174;6.730;2022-08-19T08:06:37;18.85;;;9.68;;
56541;SDS011;42438;53.174;6.730;2022-08-19T08:09:31;16.35;;;10.15;;
56541;SDS011;42438;53.174;6.730;2022-08-19T08:12:10;33.90;;;12.30;;
56541;SDS011;42438;53.174;6.730;2022-08-19T08:14:48;17.67;;;9.70;;
56541;SDS011;42438;53.174;6.730;2022-08-19T08:17:22;15.23;;;10.45;;
56541;SDS011;42438;53.174;6.730;2022-08-19T08:19:55;16.38;;;10.05;;
56541;SDS011;42438;53.174;6.730;2022-08-19T08:22:27;18.65;;;9.95;;
56541;SDS011;42438;53.174;6.730;2022-08-19T08:25:17;14.15;;;9.48;;
56541;SDS011;42438;53.174;6.730;2022-08-19T08:27:50;14.27;;;9.30;;
56541;SDS011;42438;53.174;6.730;2022-08-19T08:30:23;13.77;;;8.82;;
56541;SDS011;42438;53.174;6.730;2022-08-19T08:32:55;13.77;;;9.18;;
56541;SDS011;42438;53.174;6.730;2022-08-19T08:35:26;13.82;;;9.48;;
56541;SDS011;42438;53.174;6.730;2022-08-19T08:37:56;15.50;;;9.15;;
56541;SDS011;42438;53.174;6.730;2022-08-19T08:43:23;12.25;;;8.27;;
56541;SDS011;42438;53.174;6.730;2022-08-19T08:48:39;13.32;;;8.50;;
56541;SDS011;42438;53.174;6.730;2022-08-19T08:51:16;13.02;;;8.07;;
56541;SDS011;42438;53.174;6.730;2022-08-19T08:53:52;12.82;;;7.32;;
56541;SDS011;42438;53.174;6.730;2022-08-19T08:56:24;10.65;;;7.38;;
56541;SDS011;42438;53.174;6.730;2022-08-19T08:59:03;10.60;;;7.35;;
56541;SDS011;42438;53.174;6.730;2022-08-19T09:01:38;9.77;;;6.50;;
56541;SDS011;42438;53.174;6.730;2022-08-19T09:04:09;8.73;;;6.90;;
56541;SDS011;42438;53.174;6.730;2022-08-19T09:09:37;10.35;;;7.47;;
56541;SDS011;42438;53.174;6.730;2022-08-19T09:12:23;10.38;;;7.20;;
56541;SDS011;42438;53.174;6.730;2022-08-19T09:15:11;10.60;;;6.75;;
56541;SDS011;42438;53.174;6.730;2022-08-19T09:17:44;10.75;;;7.13;;
56541;SDS011;42438;53.174;6.730;2022-08-19T09:20:19;10.20;;;6.90;;
56541;SDS011;42438;53.174;6.730;2022-08-19T09:22:51;6.70;;;5.00;;
56541;SDS011;42438;53.174;6.730;2022-08-19T09:25:22;9.50;;;6.43;;
56541;SDS011;42438;53.174;6.730;2022-08-19T09:27:53;8.75;;;5.80;;
56541;SDS011;42438;53.174;6.730;2022-08-19T09:30:27;8.13;;;5.55;;
56541;SDS011;42438;53.174;6.730;2022-08-19T09:32:58;6.90;;;5.63;;
56541;SDS011;42438;53.174;6.730;2022-08-19T09:35:30;8.07;;;4.60;;
56541;SDS011;42438;53.174;6.730;2022-08-19T09:38:00;11.38;;;6.40;;
56541;SDS011;42438;53.174;6.730;2022-08-19T09:40:31;8.10;;;6.28;;
56541;SDS011;42438;53.174;6.730;2022-08-19T09:43:02;7.30;;;5.40;;
56541;SDS011;42438;53.174;6.730;2022-08-19T09:45:32;7.28;;;4.68;;
56541;SDS011;42438;53.174;6.730;2022-08-19T09:48:03;9.00;;;5.28;;
56541;SDS011;42438;53.174;6.730;2022-08-19T09:50:35;7.05;;;5.30;;
56541;SDS011;42438;53.174;6.730;2022-08-19T09:53:08;11.13;;;6.18;;
56541;SDS011;42438;53.174;6.730;2022-08-19T09:55:42;8.02;;;6.07;;
56541;SDS011;42438;53.174;6.730;2022-08-19T09:58:13;8.60;;;6.13;;
56541;SDS011;42438;53.174;6.730;2022-08-19T10:00:44;6.63;;;4.97;;
56541;SDS011;42438;53.174;6.730;2022-08-19T10:03:16;7.50;;;5.10;;
56541;SDS011;42438;53.174;6.730;2022-08-19T10:05:47;7.85;;;5.50;;
56541;SDS011;42438;53.174;6.730;2022-08-19T10:08:30;6.95;;;5.60;;
56541;SDS011;42438;53.174;6.730;2022-08-19T10:11:03;7.32;;;5.55;;
56541;SDS011;42438;53.174;6.730;2022-08-19T10:13:34;8.85;;;5.85;;
56541;SDS011;42438;53.174;6.730;2022-08-19T10:16:07;8.32;;;6.32;;
56541;SDS011;42438;53.174;6.730;2022-08-19T10:18:40;7.93;;;6.05;;
56541;SDS011;42438;53.174;6.730;2022-08-19T10:21:17;9.55;;;6.40;;
56541;SDS011;42438;53.174;6.730;2022-08-19T10:23:51;9.82;;;6.78;;
56541;SDS011;42438;53.174;6.730;2022-08-19T10:26:26;10.63;;;6.28;;
56541;SDS011;42438;53.174;6.730;2022-08-19T10:28:58;9.57;;;6.72;;
56541;SDS011;42438;53.174;6.730;2022-08-19T10:31:30;9.35;;;6.72;;
56541;SDS011;42438;53.174;6.730;2022-08-19T10:34:02;8.57;;;7.60;;
56541;SDS011;42438;53.174;6.730;2022-08-19T10:36:33;8.38;;;6.68;;
56541;SDS011;42438;53.174;6.730;2022-08-19T10:39:07;11.43;;;7.97;;
56541;SDS011;42438;53.174;6.730;2022-08-19T10:44:11;9.02;;;6.63;;
56541;SDS011;42438;53.174;6.730;2022-08-19T10:46:43;10.87;;;7.53;;
56541;SDS011;42438;53.174;6.730;2022-08-19T10:49:16;10.52;;;7.90;;
56541;SDS011;42438;53.174;6.730;2022-08-19T10:51:49;12.02;;;8.48;;
56541;SDS011;42438;53.174;6.730;2022-08-19T10:54:38;9.85;;;7.68;;
56541;SDS011;42438;53.174;6.730;2022-08-19T10:57:30;9.45;;;7.00;;
56541;SDS011;42438;53.174;6.730;2022-08-19T11:00:02;11.32;;;7.38;;
56541;SDS011;42438;53.174;6.730;2022-08-19T11:02:33;11.80;;;7.35;;
56541;SDS011;42438;53.174;6.730;2022-08-19T11:05:04;8.13;;;6.80;;
56541;SDS011;42438;53.174;6.730;2022-08-19T11:07:40;10.60;;;8.13;;
56541;SDS011;42438;53.174;6.730;2022-08-19T11:10:13;12.38;;;7.10;;
56541;SDS011;42438;53.174;6.730;2022-08-19T11:12:44;10.52;;;7.28;;
56541;SDS011;42438;53.174;6.730;2022-08-19T11:15:16;10.73;;;7.70;;
56541;SDS011;42438;53.174;6.730;2022-08-19T11:17:47;9.15;;;7.50;;
56541;SDS011;42438;53.174;6.730;2022-08-19T11:20:17;9.98;;;7.30;;
56541;SDS011;42438;53.174;6.730;2022-08-19T11:22:48;9.68;;;7.28;;
56541;SDS011;42438;53.174;6.730;2022-08-19T11:25:20;12.48;;;7.20;;
56541;SDS011;42438;53.174;6.730;2022-08-19T11:27:52;10.35;;;7.20;;
56541;SDS011;42438;53.174;6.730;2022-08-19T11:30:22;11.50;;;8.13;;
56541;SDS011;42438;53.174;6.730;2022-08-19T11:32:53;11.25;;;9.63;;
56541;SDS011;42438;53.174;6.730;2022-08-19T11:35:24;10.88;;;8.48;;
56541;SDS011;42438;53.174;6.730;2022-08-19T11:37:54;10.63;;;8.07;;
56541;SDS011;42438;53.174;6.730;2022-08-19T11:40:27;12.20;;;8.57;;
56541;SDS011;42438;53.174;6.730;2022-08-19T11:42:58;12.82;;;8.02;;
56541;SDS011;42438;53.174;6.730;2022-08-19T11:45:29;12.73;;;8.88;;
56541;SDS011;42438;53.174;6.730;2022-08-19T11:48:00;14.32;;;9.65;;
56541;SDS011;42438;53.174;6.730;2022-08-19T11:50:31;14.77;;;9.88;;
56541;SDS011;42438;53.174;6.730;2022-08-19T11:53:02;14.52;;;11.32;;
56541;SDS011;42438;53.174;6.730;2022-08-19T11:55:36;13.30;;;9.38;;
56541;SDS011;42438;53.174;6.730;2022-08-19T11:58:09;13.30;;;10.13;;
56541;SDS011;42438;53.174;6.730;2022-08-19T12:00:39;12.60;;;9.57;;
56541;SDS011;42438;53.174;6.730;2022-08-19T12:03:12;14.40;;;10.40;;
56541;SDS011;42438;53.174;6.730;2022-08-19T12:05:43;13.90;;;10.20;;
56541;SDS011;42438;53.174;6.730;2022-08-19T12:08:14;11.30;;;7.60;;
56541;SDS011;42438;53.174;6.730;2022-08-19T12:10:45;11.68;;;8.55;;
56541;SDS011;42438;53.174;6.730;2022-08-19T12:13:16;13.43;;;9.13;;
56541;SDS011;42438;53.174;6.730;2022-08-19T12:15:48;12.40;;;8.63;;
56541;SDS011;42438;53.174;6.730;2022-08-19T12:18:19;22.75;;;9.25;;
56541;SDS011;42438;53.174;6.730;2022-08-19T12:20:50;11.73;;;9.50;;
56541;SDS011;42438;53.174;6.730;2022-08-19T12:23:24;12.60;;;9.48;;
56541;SDS011;42438;53.174;6.730;2022-08-19T12:25:55;11.63;;;8.40;;
56541;SDS011;42438;53.174;6.730;2022-08-19T12:28:26;11.55;;;8.13;;
56541;SDS011;42438;53.174;6.730;2022-08-19T12:30:57;11.38;;;9.40;;
56541;SDS011;42438;53.174;6.730;2022-08-19T12:33:28;11.80;;;10.35;;
56541;SDS011;42438;53.174;6.730;2022-08-19T12:36:00;12.55;;;9.70;;
56541;SDS011;42438;53.174;6.730;2022-08-19T12:38:33;13.40;;;9.93;;
56541;SDS011;42438;53.174;6.730;2022-08-19T12:41:04;13.27;;;10.15;;
56541;SDS011;42438;53.174;6.730;2022-08-19T12:43:36;14.10;;;10.48;;
56541;SDS011;42438;53.174;6.730;2022-08-19T12:46:11;12.82;;;9.70;;
56541;SDS011;42438;53.174;6.730;2022-08-19T12:48:42;13.57;;;10.27;;
56541;SDS011;42438;53.174;6.730;2022-08-19T12:51:16;12.38;;;8.93;;
56541;SDS011;42438;53.174;6.730;2022-08-19T12:53:49;11.15;;;8.52;;
56541;SDS011;42438;53.174;6.730;2022-08-19T12:56:19;10.60;;;8.32;;
56541;SDS011;42438;53.174;6.730;2022-08-19T12:58:50;13.05;;;9.88;;
56541;SDS011;42438;53.174;6.730;2022-08-19T13:01:21;9.32;;;7.97;;
56541;SDS011;42438;53.174;6.730;2022-08-19T13:03:51;12.43;;;9.38;;
56541;SDS011;42438;53.174;6.730;2022-08-19T13:06:22;10.65;;;8.90;;
56541;SDS011;42438;53.174;6.730;2022-08-19T13:08:53;12.75;;;9.45;;
56541;SDS011;42438;53.174;6.730;2022-08-19T13:11:25;12.23;;;9.00;;
56541;SDS011;42438;53.174;6.730;2022-08-19T13:13:55;13.75;;;9.55;;
56541;SDS011;42438;53.174;6.730;2022-08-19T13:16:26;11.70;;;9.45;;
56541;SDS011;42438;53.174;6.730;2022-08-19T13:18:57;14.48;;;9.73;;
56541;SDS011;42438;53.174;6.730;2022-08-19T13:21:28;12.00;;;9.80;;
56541;SDS011;42438;53.174;6.730;2022-08-19T13:23:59;12.90;;;9.13;;
56541;SDS011;42438;53.174;6.730;2022-08-19T13:26:32;13.32;;;9.27;;
56541;SDS011;42438;53.174;6.730;2022-08-19T13:29:02;14.05;;;9.30;;
56541;SDS011;42438;53.174;6.730;2022-08-19T13:31:51;13.02;;;9.23;;
56541;SDS011;42438;53.174;6.730;2022-08-19T13:34:41;10.32;;;9.13;;
56541;SDS011;42438;53.174;6.730;2022-08-19T13:37:12;12.95;;;8.88;;
56541;SDS011;42438;53.174;6.730;2022-08-19T13:39:42;11.50;;;9.35;;
56541;SDS011;42438;53.174;6.730;2022-08-19T13:42:14;17.83;;;9.43;;
56541;SDS011;42438;53.174;6.730;2022-08-19T13:44:45;11.00;;;8.30;;
56541;SDS011;42438;53.174;6.730;2022-08-19T13:47:17;11.85;;;9.00;;
56541;SDS011;42438;53.174;6.730;2022-08-19T13:49:48;12.35;;;9.23;;
56541;SDS011;42438;53.174;6.730;2022-08-19T13:52:19;11.10;;;9.15;;
56541;SDS011;42438;53.174;6.730;2022-08-19T13:54:50;16.42;;;10.38;;
56541;SDS011;42438;53.174;6.730;2022-08-19T13:57:21;18.58;;;12.32;;
56541;SDS011;42438;53.174;6.730;2022-08-19T13:59:51;14.77;;;11.07;;
56541;SDS011;42438;53.174;6.730;2022-08-19T14:02:22;18.70;;;11.80;;
56541;SDS011;42438;53.174;6.730;2022-08-19T14:04:53;15.80;;;10.77;;
56541;SDS011;42438;53.174;6.730;2022-08-19T14:07:23;13.50;;;10.43;;
56541;SDS011;42438;53.174;6.730;2022-08-19T14:09:54;15.13;;;10.27;;
56541;SDS011;42438;53.174;6.730;2022-08-19T14:12:25;16.83;;;10.35;;
56541;SDS011;42438;53.174;6.730;2022-08-19T14:14:55;14.00;;;10.18;;
56541;SDS011;42438;53.174;6.730;2022-08-19T14:17:26;13.07;;;9.75;;
56541;SDS011;42438;53.174;6.730;2022-08-19T14:19:58;11.45;;;7.72;;
56541;SDS011;42438;53.174;6.730;2022-08-19T14:22:30;12.65;;;7.85;;
56541;SDS011;42438;53.174;6.730;2022-08-19T14:25:00;11.60;;;7.50;;
56541;SDS011;42438;53.174;6.730;2022-08-19T14:27:35;10.20;;;7.25;;
56541;SDS011;42438;53.174;6.730;2022-08-19T14:30:08;9.38;;;7.30;;
56541;SDS011;42438;53.174;6.730;2022-08-19T14:32:41;10.90;;;7.97;;
56541;SDS011;42438;53.174;6.730;2022-08-19T14:35:14;12.50;;;7.90;;
56541;SDS011;42438;53.174;6.730;2022-08-19T14:37:45;12.23;;;7.70;;
56541;SDS011;42438;53.174;6.730;2022-08-19T14:40:17;11.88;;;7.85;;
56541;SDS011;42438;53.174;6.730;2022-08-19T14:42:51;11.73;;;7.40;;
56541;SDS011;42438;53.174;6.730;2022-08-19T14:45:26;14.27;;;7.93;;
56541;SDS011;42438;53.174;6.730;2022-08-19T14:47:57;15.07;;;8.20;;
56541;SDS011;42438;53.174;6.730;2022-08-19T14:50:29;12.63;;;8.93;;
56541;SDS011;42438;53.174;6.730;2022-08-19T14:53:01;11.65;;;8.13;;
56541;SDS011;42438;53.174;6.730;2022-08-19T14:55:34;14.73;;;9.82;;
56541;SDS011;42438;53.174;6.730;2022-08-19T14:58:05;12.95;;;8.43;;
56541;SDS011;42438;53.174;6.730;2022-08-19T15:00:36;15.38;;;8.85;;
56541;SDS011;42438;53.174;6.730;2022-08-19T15:03:07;13.82;;;8.88;;
56541;SDS011;42438;53.174;6.730;2022-08-19T15:05:37;14.00;;;9.90;;
56541;SDS011;42438;53.174;6.730;2022-08-19T15:08:08;14.10;;;9.13;;
56541;SDS011;42438;53.174;6.730;2022-08-19T15:10:38;14.70;;;9.38;;
56541;SDS011;42438;53.174;6.730;2022-08-19T15:13:09;16.05;;;9.80;;
56541;SDS011;42438;53.174;6.730;2022-08-19T15:15:40;11.00;;;8.65;;
56541;SDS011;42438;53.174;6.730;2022-08-19T15:18:10;14.65;;;9.40;;
56541;SDS011;42438;53.174;6.730;2022-08-19T15:20:42;12.52;;;9.00;;
56541;SDS011;42438;53.174;6.730;2022-08-19T15:23:14;13.40;;;9.15;;
56541;SDS011;42438;53.174;6.730;2022-08-19T15:25:46;13.55;;;8.80;;
56541;SDS011;42438;53.174;6.730;2022-08-19T15:28:17;14.90;;;8.90;;
56541;SDS011;42438;53.174;6.730;2022-08-19T15:30:47;14.68;;;9.38;;